Ida — C4CZ2 — position and weather

sailwx.info

Track history (hours):
 
Tides and Currents Weather Stations Pressure Air Temp Water Temp Dewpoint Dewpoint Depression Visibility Wind Speed Wind Dir Waves Ship Positions

Ida

Last reported at 2014-Nov-21 18:07 UTC. Time now 2014-Nov-23 01:10 UTC.
Position N 54°11' E 014°09'.

Length 82 m; draft 4 m.

Type: Cargo ship. MMSI: 210319000.

Date/timePositionNaut miles runAvg speedWind from/ knotsBaromVisibWave heightAir tempDewpointWater temp
2014-Nov-21 18:07N 54°11' E 014°09'12 7.7
2014-Nov-21 16:33N 53°60' E 014°16'8 7.6
2014-Nov-21 15:33N 53°52' E 014°17'9 8.5
2014-Nov-21 14:33N 53°45' E 014°25'9 8.9
2014-Nov-21 13:33N 53°38' E 014°34'9 8.5
2014-Nov-21 12:33N 53°30' E 014°37'1 0.9
2014-Nov-21 11:33N 53°29' E 014°37'0 0.0
2014-Nov-21 10:33N 53°29' E 014°37'0 0.0
2014-Nov-21 09:33N 53°29' E 014°37'0 0.0
2014-Nov-21 08:33N 53°29' E 014°37'0 0.0
2014-Nov-21 07:33N 53°29' E 014°37'0 0.0
2014-Nov-21 06:33N 53°29' E 014°37'0 0.0
2014-Nov-21 05:33N 53°29' E 014°37'0 0.0
2014-Nov-21 04:33N 53°29' E 014°37'0 0.0
2014-Nov-21 03:33N 53°29' E 014°37'0 0.0
2014-Nov-21 02:33N 53°29' E 014°37'0 0.0
2014-Nov-21 01:33N 53°29' E 014°37'0 0.0
2014-Nov-21 00:33N 53°29' E 014°37'0 0.0
2014-Nov-20 23:33N 53°29' E 014°37'0 0.0
2014-Nov-20 22:33N 53°29' E 014°37'0 0.0
2014-Nov-20 21:33N 53°29' E 014°37'0 0.0
2014-Nov-20 20:33N 53°29' E 014°37'0 0.0
2014-Nov-20 19:33N 53°29' E 014°37'0 0.0
2014-Nov-20 18:33N 53°29' E 014°37'0 0.0
2014-Nov-20 17:33N 53°29' E 014°37'5 5.2
2014-Nov-20 16:33N 53°34' E 014°36'9 8.8
2014-Nov-20 15:33N 53°42' E 014°29'9 9.4
2014-Nov-20 14:33N 53°49' E 014°19'7 6.5
2014-Nov-20 13:33N 53°56' E 014°17'3 2.5
2014-Nov-20 12:33N 53°58' E 014°15'0 0.0
2014-Nov-20 11:33N 53°58' E 014°15'0 0.0
2014-Nov-20 10:33N 53°58' E 014°15'0 0.0
2014-Nov-20 09:33N 53°58' E 014°15'0 0.0
2014-Nov-20 08:33N 53°58' E 014°15'0 0.0
2014-Nov-20 07:33N 53°58' E 014°15'0 0.0
2014-Nov-20 06:33N 53°58' E 014°15'0 0.0
2014-Nov-20 05:33N 53°58' E 014°15'0 0.0
2014-Nov-20 04:33N 53°58' E 014°15'0 0.0
2014-Nov-20 03:33N 53°58' E 014°15'0 0.0
2014-Nov-20 02:33N 53°58' E 014°15'0 0.0
2014-Nov-20 01:33N 53°58' E 014°15'0 0.0
2014-Nov-20 00:33N 53°58' E 014°15'0 0.0
2014-Nov-19 23:33N 53°58' E 014°15'0 0.0
2014-Nov-19 22:33N 53°58' E 014°15'1 1.2
2014-Nov-19 21:33N 53°59' E 014°14'9 9.4
2014-Nov-19 20:33N 54°08' E 014°08'77 8.6
2014-Nov-19 11:33N 55°08' E 012°44'9 8.7
2014-Nov-19 10:33N 55°16' E 012°37'9 9.3
2014-Nov-19 09:33N 55°25' E 012°39'9 9.5
2014-Nov-19 08:33N 55°34' E 012°42'9 9.2
2014-Nov-19 07:33N 55°43' E 012°41'9 9.0
2014-Nov-19 06:33N 55°52' E 012°39'9 9.0
2014-Nov-19 05:33N 56°01' E 012°38'6 6.2
2014-Nov-19 04:33N 56°07' E 012°32'7 7.0
2014-Nov-19 03:33N 56°13' E 012°26'9 8.6
2014-Nov-19 02:33N 56°21' E 012°20'9 8.6
2014-Nov-19 01:33N 56°29' E 012°15'60 8.6
2014-Nov-18 18:33N 57°25' E 011°36'9 9.3
2014-Nov-18 17:33N 57°34' E 011°29'9 9.4
2014-Nov-18 16:33N 57°43' E 011°24'10 9.7
2014-Nov-18 15:33N 57°52' E 011°21'9 9.4
2014-Nov-18 14:33N 58°01' E 011°17'9 9.3
2014-Nov-18 13:33N 58°10' E 011°13'7 7.1
2014-Nov-18 12:33N 58°16' E 011°22'3 0.4
2014-Nov-18 06:33N 58°17' E 011°27'0 0.0
2014-Nov-18 05:33N 58°17' E 011°27'0 0.0
2014-Nov-18 04:33N 58°17' E 011°27'0 0.0
2014-Nov-18 03:33N 58°17' E 011°27'0 0.0
2014-Nov-18 02:33N 58°17' E 011°27'0 0.0
2014-Nov-18 01:27N 58°17' E 011°27'0 0.0
2014-Nov-18 00:33N 58°17' E 011°27'0 0.0
2014-Nov-17 23:33N 58°17' E 011°27'0 0.0
2014-Nov-17 22:30N 58°17' E 011°27'0 0.0
2014-Nov-17 21:30N 58°17' E 011°27'0 0.0
2014-Nov-17 20:33N 58°17' E 011°27'0 0.0
2014-Nov-17 19:33N 58°17' E 011°27'0 0.0
2014-Nov-17 18:33N 58°17' E 011°27'0 0.0
2014-Nov-17 17:33N 58°17' E 011°27'0 0.0
2014-Nov-17 16:33N 58°17' E 011°27'0 0.0
2014-Nov-17 15:33N 58°17' E 011°27'0 0.0
2014-Nov-17 14:33N 58°17' E 011°27'0 0.0
2014-Nov-17 13:33N 58°17' E 011°27'0 0.0
2014-Nov-17 12:33N 58°17' E 011°27'0 0.0
2014-Nov-17 11:33N 58°17' E 011°27'0 0.0
2014-Nov-17 10:30N 58°17' E 011°27'0 0.0
2014-Nov-17 09:33N 58°17' E 011°27'0 0.0
2014-Nov-17 08:33N 58°17' E 011°27'0 0.0
2014-Nov-17 07:33N 58°17' E 011°27'0 0.0
2014-Nov-17 06:33N 58°17' E 011°27'0 0.0
2014-Nov-17 05:33N 58°17' E 011°27'0 0.0
2014-Nov-17 04:33N 58°17' E 011°27'0 0.0
2014-Nov-17 03:33N 58°17' E 011°27'0 0.0
2014-Nov-17 02:33N 58°17' E 011°27'0 0.0
2014-Nov-17 01:33N 58°17' E 011°27'0 0.0
2014-Nov-17 00:33N 58°17' E 011°27'0 0.0
2014-Nov-16 23:33N 58°17' E 011°27'0 0.0
2014-Nov-16 22:33N 58°17' E 011°27'0 0.0
2014-Nov-16 21:33N 58°17' E 011°27'0 0.0
2014-Nov-16 20:33N 58°17' E 011°27'0 0.4
2014-Nov-16 19:33N 58°16' E 011°27'7 6.6
2014-Nov-16 18:33N 58°15' E 011°14'7 7.2
2014-Nov-16 17:34N 58°11' E 011°03'7 6.9
2014-Nov-16 16:34N 58°07' E 010°53'6 6.3
2014-Nov-16 15:33N 58°03' E 010°43'6 5.8
2014-Nov-16 14:34N 57°59' E 010°34'6 5.4
2014-Nov-16 13:29N 57°55' E 010°27'73 6.1
2014-Nov-16 01:33N 57°14' E 008°35'6 5.8
2014-Nov-16 00:33N 57°11' E 008°26'7 6.6
2014-Nov-15 23:34N 57°05' E 008°21'7 7.3
2014-Nov-15 22:33N 56°58' E 008°14'8 7.8
2014-Nov-15 21:33N 56°51' E 008°08'8 8.4
2014-Nov-15 20:33N 56°44' E 008°01'60 7.5
2014-Nov-15 12:33N 55°46' E 007°33'7 7.4
2014-Nov-15 11:33N 55°42' E 007°23'7 7.4
2014-Nov-15 10:33N 55°37' E 007°14'7 7.0
2014-Nov-15 09:33N 55°30' E 007°08'8 7.7
2014-Nov-15 08:33N 55°23' E 007°04'8 8.1
2014-Nov-15 07:33N 55°15' E 006°59'8 8.3
2014-Nov-15 06:33N 55°07' E 006°55'8 8.3
2014-Nov-15 05:33N 54°60' E 006°50'84 8.2
2014-Nov-14 19:16N 53°37' E 006°24'710.0
2014-Nov-14 18:32N 53°35' E 006°37'1111.0
2014-Nov-14 17:33N 53°29' E 006°51'10 9.6
2014-Nov-14 16:33N 53°21' E 006°60'2 2.1
2014-Nov-14 15:32N 53°20' E 006°56'0 0.0
2014-Nov-14 14:32N 53°20' E 006°56'0 0.0
2014-Nov-14 12:32N 53°20' E 006°56'0 0.0
2014-Nov-14 11:32N 53°20' E 006°56'0 0.0
2014-Nov-14 10:32N 53°20' E 006°56'0 0.0
2014-Nov-14 09:32N 53°20' E 006°56'0 0.0
2014-Nov-14 08:32N 53°20' E 006°56'0 0.0
2014-Nov-14 07:32N 53°20' E 006°56'0 0.0
2014-Nov-14 06:32N 53°20' E 006°56'0 0.0
2014-Nov-14 05:32N 53°20' E 006°56'0 0.0
2014-Nov-14 04:32N 53°20' E 006°56'0 0.0
2014-Nov-14 03:32N 53°20' E 006°56'0 0.0
2014-Nov-14 02:32N 53°20' E 006°56'0 0.0
2014-Nov-14 01:29N 53°20' E 006°56'0 0.0
2014-Nov-14 00:32N 53°20' E 006°56'0 0.0
2014-Nov-13 23:32N 53°20' E 006°56'0 0.0
2014-Nov-13 22:32N 53°20' E 006°56'0 0.0
2014-Nov-13 21:32N 53°20' E 006°56'0 0.0
2014-Nov-13 20:32N 53°20' E 006°56'0 0.0
2014-Nov-13 19:32N 53°20' E 006°56'0 0.0
2014-Nov-13 18:32N 53°20' E 006°56'0 0.0
2014-Nov-13 17:32N 53°20' E 006°56'0 0.0
2014-Nov-13 16:32N 53°20' E 006°56'0 0.0
2014-Nov-13 15:32N 53°20' E 006°56'0 0.0
2014-Nov-13 14:32N 53°20' E 006°56'0 0.0
2014-Nov-13 13:32N 53°20' E 006°56'0 0.0
2014-Nov-13 12:32N 53°20' E 006°56'0 0.0
2014-Nov-13 11:32N 53°20' E 006°56'3 2.6
2014-Nov-13 10:33N 53°19' E 006°60'1010.0
2014-Nov-13 09:33N 53°28' E 006°52'10 9.7
2014-Nov-13 08:33N 53°34' E 006°39'15 7.2
2014-Nov-13 06:27N 53°37' E 006°14'7 8.1
2014-Nov-13 05:33N 53°38' E 006°02'8 7.9
2014-Nov-13 04:34N 53°37' E 005°49'8 7.5
2014-Nov-13 03:33N 53°35' E 005°37'8 7.5
2014-Nov-13 02:33N 53°33' E 005°25'8 7.9
2014-Nov-13 01:34N 53°30' E 005°12'8 8.4
2014-Nov-13 00:33N 53°27' E 004°59'9 8.8
2014-Nov-12 23:33N 53°24' E 004°45'29 9.1
2014-Nov-12 20:24N 52°59' E 004°22'8 9.2
2014-Nov-12 19:33N 52°52' E 004°16'9 9.4
2014-Nov-12 18:33N 52°44' E 004°09'9 9.5
2014-Nov-12 17:33N 52°36' E 004°19'10 9.5
2014-Nov-12 16:33N 52°30' E 004°30'4 4.2
2014-Nov-12 15:33N 52°28' E 004°36'7 7.1
2014-Nov-12 14:33N 52°26' E 004°47'3 3.1
2014-Nov-12 13:31N 52°24' E 004°52'0 0.0
2014-Nov-12 12:31N 52°24' E 004°52'0 0.0
2014-Nov-12 11:31N 52°24' E 004°52'0 0.0
2014-Nov-12 10:31N 52°24' E 004°52'0 0.0
2014-Nov-12 09:31N 52°24' E 004°52'0 0.0
2014-Nov-12 08:31N 52°24' E 004°52'0 0.0
2014-Nov-12 07:31N 52°24' E 004°52'0 0.0
2014-Nov-12 06:28N 52°24' E 004°52'0 0.0
2014-Nov-12 05:31N 52°24' E 004°52'0 0.0
2014-Nov-12 04:31N 52°24' E 004°52'0 0.0
2014-Nov-12 03:31N 52°24' E 004°52'0 0.0
2014-Nov-12 02:31N 52°24' E 004°52'0 0.0
2014-Nov-12 01:31N 52°24' E 004°52'0 0.0
2014-Nov-12 00:31N 52°24' E 004°52'0 0.0
2014-Nov-11 23:31N 52°24' E 004°52'0 0.0
2014-Nov-11 22:31N 52°24' E 004°52'0 0.0
2014-Nov-11 21:31N 52°24' E 004°52'0 0.0
2014-Nov-11 20:33N 52°24' E 004°52'5 5.0
2014-Nov-11 19:34N 52°26' E 004°44'5 5.2
2014-Nov-11 18:33N 52°28' E 004°36'  
Track history (hours):
 
Tides and Currents Weather Stations Pressure Air Temp Water Temp Dewpoint Dewpoint Depression Visibility Wind Speed Wind Dir Waves Ship Positions

Ida

Last reported at 2014-Nov-21 18:07 UTC. Time now 2014-Nov-23 01:10 UTC.
Position N 54°11' E 014°09'.

Length 82 m; draft 4 m.

Type: Cargo ship. MMSI: 210319000.

Date/timePositionNaut miles runAvg speedWind from/ knotsBaromVisibWave heightAir tempDewpointWater temp
2014-Nov-21 18:07N 54°11' E 014°09'12 7.7
2014-Nov-21 16:33N 53°60' E 014°16'8 7.6
2014-Nov-21 15:33N 53°52' E 014°17'9 8.5
2014-Nov-21 14:33N 53°45' E 014°25'9 8.9
2014-Nov-21 13:33N 53°38' E 014°34'9 8.5
2014-Nov-21 12:33N 53°30' E 014°37'1 0.9
2014-Nov-21 11:33N 53°29' E 014°37'0 0.0
2014-Nov-21 10:33N 53°29' E 014°37'0 0.0
2014-Nov-21 09:33N 53°29' E 014°37'0 0.0
2014-Nov-21 08:33N 53°29' E 014°37'0 0.0
2014-Nov-21 07:33N 53°29' E 014°37'0 0.0
2014-Nov-21 06:33N 53°29' E 014°37'0 0.0
2014-Nov-21 05:33N 53°29' E 014°37'0 0.0
2014-Nov-21 04:33N 53°29' E 014°37'0 0.0
2014-Nov-21 03:33N 53°29' E 014°37'0 0.0
2014-Nov-21 02:33N 53°29' E 014°37'0 0.0
2014-Nov-21 01:33N 53°29' E 014°37'0 0.0
2014-Nov-21 00:33N 53°29' E 014°37'0 0.0
2014-Nov-20 23:33N 53°29' E 014°37'0 0.0
2014-Nov-20 22:33N 53°29' E 014°37'0 0.0
2014-Nov-20 21:33N 53°29' E 014°37'0 0.0
2014-Nov-20 20:33N 53°29' E 014°37'0 0.0
2014-Nov-20 19:33N 53°29' E 014°37'0 0.0
2014-Nov-20 18:33N 53°29' E 014°37'0 0.0
2014-Nov-20 17:33N 53°29' E 014°37'5 5.2
2014-Nov-20 16:33N 53°34' E 014°36'9 8.8
2014-Nov-20 15:33N 53°42' E 014°29'9 9.4
2014-Nov-20 14:33N 53°49' E 014°19'7 6.5
2014-Nov-20 13:33N 53°56' E 014°17'3 2.5
2014-Nov-20 12:33N 53°58' E 014°15'0 0.0
2014-Nov-20 11:33N 53°58' E 014°15'0 0.0
2014-Nov-20 10:33N 53°58' E 014°15'0 0.0
2014-Nov-20 09:33N 53°58' E 014°15'0 0.0
2014-Nov-20 08:33N 53°58' E 014°15'0 0.0
2014-Nov-20 07:33N 53°58' E 014°15'0 0.0
2014-Nov-20 06:33N 53°58' E 014°15'0 0.0
2014-Nov-20 05:33N 53°58' E 014°15'0 0.0
2014-Nov-20 04:33N 53°58' E 014°15'0 0.0
2014-Nov-20 03:33N 53°58' E 014°15'0 0.0
2014-Nov-20 02:33N 53°58' E 014°15'0 0.0
2014-Nov-20 01:33N 53°58' E 014°15'0 0.0
2014-Nov-20 00:33N 53°58' E 014°15'0 0.0
2014-Nov-19 23:33N 53°58' E 014°15'0 0.0
2014-Nov-19 22:33N 53°58' E 014°15'1 1.2
2014-Nov-19 21:33N 53°59' E 014°14'9 9.4
2014-Nov-19 20:33N 54°08' E 014°08'77 8.6
2014-Nov-19 11:33N 55°08' E 012°44'9 8.7
2014-Nov-19 10:33N 55°16' E 012°37'9 9.3
2014-Nov-19 09:33N 55°25' E 012°39'9 9.5
2014-Nov-19 08:33N 55°34' E 012°42'9 9.2
2014-Nov-19 07:33N 55°43' E 012°41'9 9.0
2014-Nov-19 06:33N 55°52' E 012°39'9 9.0
2014-Nov-19 05:33N 56°01' E 012°38'6 6.2
2014-Nov-19 04:33N 56°07' E 012°32'7 7.0
2014-Nov-19 03:33N 56°13' E 012°26'9 8.6
2014-Nov-19 02:33N 56°21' E 012°20'9 8.6
2014-Nov-19 01:33N 56°29' E 012°15'60 8.6
2014-Nov-18 18:33N 57°25' E 011°36'9 9.3
2014-Nov-18 17:33N 57°34' E 011°29'9 9.4
2014-Nov-18 16:33N 57°43' E 011°24'10 9.7
2014-Nov-18 15:33N 57°52' E 011°21'9 9.4
2014-Nov-18 14:33N 58°01' E 011°17'9 9.3
2014-Nov-18 13:33N 58°10' E 011°13'7 7.1
2014-Nov-18 12:33N 58°16' E 011°22'3 0.4
2014-Nov-18 06:33N 58°17' E 011°27'0 0.0
2014-Nov-18 05:33N 58°17' E 011°27'0 0.0
2014-Nov-18 04:33N 58°17' E 011°27'0 0.0
2014-Nov-18 03:33N 58°17' E 011°27'0 0.0
2014-Nov-18 02:33N 58°17' E 011°27'0 0.0
2014-Nov-18 01:27N 58°17' E 011°27'0 0.0
2014-Nov-18 00:33N 58°17' E 011°27'0 0.0
2014-Nov-17 23:33N 58°17' E 011°27'0 0.0
2014-Nov-17 22:30N 58°17' E 011°27'0 0.0
2014-Nov-17 21:30N 58°17' E 011°27'0 0.0
2014-Nov-17 20:33N 58°17' E 011°27'0 0.0
2014-Nov-17 19:33N 58°17' E 011°27'0 0.0
2014-Nov-17 18:33N 58°17' E 011°27'0 0.0
2014-Nov-17 17:33N 58°17' E 011°27'0 0.0
2014-Nov-17 16:33N 58°17' E 011°27'0 0.0
2014-Nov-17 15:33N 58°17' E 011°27'0 0.0
2014-Nov-17 14:33N 58°17' E 011°27'0 0.0
2014-Nov-17 13:33N 58°17' E 011°27'0 0.0
2014-Nov-17 12:33N 58°17' E 011°27'0 0.0
2014-Nov-17 11:33N 58°17' E 011°27'0 0.0
2014-Nov-17 10:30N 58°17' E 011°27'0 0.0
2014-Nov-17 09:33N 58°17' E 011°27'0 0.0
2014-Nov-17 08:33N 58°17' E 011°27'0 0.0
2014-Nov-17 07:33N 58°17' E 011°27'0 0.0
2014-Nov-17 06:33N 58°17' E 011°27'0 0.0
2014-Nov-17 05:33N 58°17' E 011°27'0 0.0
2014-Nov-17 04:33N 58°17' E 011°27'0 0.0
2014-Nov-17 03:33N 58°17' E 011°27'0 0.0
2014-Nov-17 02:33N 58°17' E 011°27'0 0.0
2014-Nov-17 01:33N 58°17' E 011°27'0 0.0
2014-Nov-17 00:33N 58°17' E 011°27'0 0.0
2014-Nov-16 23:33N 58°17' E 011°27'0 0.0
2014-Nov-16 22:33N 58°17' E 011°27'0 0.0
2014-Nov-16 21:33N 58°17' E 011°27'0 0.0
2014-Nov-16 20:33N 58°17' E 011°27'0 0.4
2014-Nov-16 19:33N 58°16' E 011°27'7 6.6
2014-Nov-16 18:33N 58°15' E 011°14'7 7.2
2014-Nov-16 17:34N 58°11' E 011°03'7 6.9
2014-Nov-16 16:34N 58°07' E 010°53'6 6.3
2014-Nov-16 15:33N 58°03' E 010°43'6 5.8
2014-Nov-16 14:34N 57°59' E 010°34'6 5.4
2014-Nov-16 13:29N 57°55' E 010°27'73 6.1
2014-Nov-16 01:33N 57°14' E 008°35'6 5.8
2014-Nov-16 00:33N 57°11' E 008°26'7 6.6
2014-Nov-15 23:34N 57°05' E 008°21'7 7.3
2014-Nov-15 22:33N 56°58' E 008°14'8 7.8
2014-Nov-15 21:33N 56°51' E 008°08'8 8.4
2014-Nov-15 20:33N 56°44' E 008°01'60 7.5
2014-Nov-15 12:33N 55°46' E 007°33'7 7.4
2014-Nov-15 11:33N 55°42' E 007°23'7 7.4
2014-Nov-15 10:33N 55°37' E 007°14'7 7.0
2014-Nov-15 09:33N 55°30' E 007°08'8 7.7
2014-Nov-15 08:33N 55°23' E 007°04'8 8.1
2014-Nov-15 07:33N 55°15' E 006°59'8 8.3
2014-Nov-15 06:33N 55°07' E 006°55'8 8.3
2014-Nov-15 05:33N 54°60' E 006°50'84 8.2
2014-Nov-14 19:16N 53°37' E 006°24'710.0
2014-Nov-14 18:32N 53°35' E 006°37'1111.0
2014-Nov-14 17:33N 53°29' E 006°51'10 9.6
2014-Nov-14 16:33N 53°21' E 006°60'2 2.1
2014-Nov-14 15:32N 53°20' E 006°56'0 0.0
2014-Nov-14 14:32N 53°20' E 006°56'0 0.0
2014-Nov-14 12:32N 53°20' E 006°56'0 0.0
2014-Nov-14 11:32N 53°20' E 006°56'0 0.0
2014-Nov-14 10:32N 53°20' E 006°56'0 0.0
2014-Nov-14 09:32N 53°20' E 006°56'0 0.0
2014-Nov-14 08:32N 53°20' E 006°56'0 0.0
2014-Nov-14 07:32N 53°20' E 006°56'0 0.0
2014-Nov-14 06:32N 53°20' E 006°56'0 0.0
2014-Nov-14 05:32N 53°20' E 006°56'0 0.0
2014-Nov-14 04:32N 53°20' E 006°56'0 0.0
2014-Nov-14 03:32N 53°20' E 006°56'0 0.0
2014-Nov-14 02:32N 53°20' E 006°56'0 0.0
2014-Nov-14 01:29N 53°20' E 006°56'0 0.0
2014-Nov-14 00:32N 53°20' E 006°56'0 0.0
2014-Nov-13 23:32N 53°20' E 006°56'0 0.0
2014-Nov-13 22:32N 53°20' E 006°56'0 0.0
2014-Nov-13 21:32N 53°20' E 006°56'0 0.0
2014-Nov-13 20:32N 53°20' E 006°56'0 0.0
2014-Nov-13 19:32N 53°20' E 006°56'0 0.0
2014-Nov-13 18:32N 53°20' E 006°56'0 0.0
2014-Nov-13 17:32N 53°20' E 006°56'0 0.0
2014-Nov-13 16:32N 53°20' E 006°56'0 0.0
2014-Nov-13 15:32N 53°20' E 006°56'0 0.0
2014-Nov-13 14:32N 53°20' E 006°56'0 0.0
2014-Nov-13 13:32N 53°20' E 006°56'0 0.0
2014-Nov-13 12:32N 53°20' E 006°56'0 0.0
2014-Nov-13 11:32N 53°20' E 006°56'3 2.6
2014-Nov-13 10:33N 53°19' E 006°60'1010.0
2014-Nov-13 09:33N 53°28' E 006°52'10 9.7
2014-Nov-13 08:33N 53°34' E 006°39'15 7.2
2014-Nov-13 06:27N 53°37' E 006°14'7 8.1
2014-Nov-13 05:33N 53°38' E 006°02'8 7.9
2014-Nov-13 04:34N 53°37' E 005°49'8 7.5
2014-Nov-13 03:33N 53°35' E 005°37'8 7.5
2014-Nov-13 02:33N 53°33' E 005°25'8 7.9
2014-Nov-13 01:34N 53°30' E 005°12'8 8.4
2014-Nov-13 00:33N 53°27' E 004°59'9 8.8
2014-Nov-12 23:33N 53°24' E 004°45'29 9.1
2014-Nov-12 20:24N 52°59' E 004°22'8 9.2
2014-Nov-12 19:33N 52°52' E 004°16'9 9.4
2014-Nov-12 18:33N 52°44' E 004°09'9 9.5
2014-Nov-12 17:33N 52°36' E 004°19'10 9.5
2014-Nov-12 16:33N 52°30' E 004°30'4 4.2
2014-Nov-12 15:33N 52°28' E 004°36'7 7.1
2014-Nov-12 14:33N 52°26' E 004°47'3 3.1
2014-Nov-12 13:31N 52°24' E 004°52'0 0.0
2014-Nov-12 12:31N 52°24' E 004°52'0 0.0
2014-Nov-12 11:31N 52°24' E 004°52'0 0.0
2014-Nov-12 10:31N 52°24' E 004°52'0 0.0
2014-Nov-12 09:31N 52°24' E 004°52'0 0.0
2014-Nov-12 08:31N 52°24' E 004°52'0 0.0
2014-Nov-12 07:31N 52°24' E 004°52'0 0.0
2014-Nov-12 06:28N 52°24' E 004°52'0 0.0
2014-Nov-12 05:31N 52°24' E 004°52'0 0.0
2014-Nov-12 04:31N 52°24' E 004°52'0 0.0
2014-Nov-12 03:31N 52°24' E 004°52'0 0.0
2014-Nov-12 02:31N 52°24' E 004°52'0 0.0
2014-Nov-12 01:31N 52°24' E 004°52'0 0.0
2014-Nov-12 00:31N 52°24' E 004°52'0 0.0
2014-Nov-11 23:31N 52°24' E 004°52'0 0.0
2014-Nov-11 22:31N 52°24' E 004°52'0 0.0
2014-Nov-11 21:31N 52°24' E 004°52'0 0.0
2014-Nov-11 20:33N 52°24' E 004°52'5 5.0
2014-Nov-11 19:34N 52°26' E 004°44'5 5.2
2014-Nov-11 18:33N 52°28' E 004°36'  

Dump ship's entire track history